Terminal Aerodrome Forecast
Issued by NWS Sterling, VA

Current Version | Previous Version | Graphics & Text | Print | Product List | Glossary On
Versions: 1 2 3 4 5 6 7 8 9 10 11 12 13
405
FTUS41 KLWX 261135
TAFMRB
TAF
KMRB 261135Z 2612/2712 29013G21KT P6SM OVC045
     FM261900 28011KT P6SM SCT050
     FM262200 27008KT P6SM FEW050
     FM270000 26004KT P6SM SKC
     FM271000 VRB03KT P6SM BKN100=

USA.gov is the U.S. government's official web portal to all federal, state and local government web resources and services.